No requiere especial atencion con respecto al clima.   -   No hay Alarmas

Nearby METAR Reports

 

LELL - Sabadell, Spain
Distance from station: E 19km
Actualización: 07/10/2022 21:00
Cubierto
Cubierto
 Viento del varies
Viento: varies 4 km/h
Temperatura: 19°C
Rocío: 16°C
Humedad: 83%
Barómetro: 1020 hPa
Clouds: Cubierto
Visibility: 10 km
Cloud details: Muy nuboso 1128 m
Cubierto 1341 m
2022/10/07 19:00 LELL 071900Z AUTO VRB02KT 9999 BKN037 OVC044 19/16 Q1020
LEBL - Barcelona Airpor, Spain
Distance from station: SSE 30km
Actualización: 07/10/2022 21:00
Few Clouds
Few Clouds
 Viento del NE
Viento: NE 22 km/h
Temperatura: 20°C
Rocío: 17°C
Humedad: 83%
Barómetro: 1020 hPa
Clouds: Few Clouds
Visibility: 10 km
Cloud details: Parcialmente nuboso 549 m
Cubierto 671 m
Few Clouds 1219 m
2022/10/07 19:00 LEBL 071900Z 05012KT 9999 SCT018 OVC022 FEW040CB 20/17 Q1020 TEMPO TS SHRA
 
LERS - Reus (civ/Mil), Spain
Distance from station: SO 71km
Actualización: 07/10/2022 21:00
Few Clouds
Few Clouds
 Viento del NNE
Viento: NNE 7 km/h
Temperatura: 21°C
Rocío: 16°C
Humedad: 73%
Barómetro: 1020 hPa
Clouds: Few Clouds
Visibility: 10 km
Cloud details: Few Clouds 762 m
2022/10/07 19:00 LERS 071900Z 03004KT 9999 FEW025 21/16 Q1020
LEGE - Gerona/Costa Bra, Spain
Distance from station: ENE 86km
Actualización: 07/10/2022 21:00
Cubierto
Cubierto
 Viento del N
Viento: N 11 km/h
Temperatura: 19°C
Rocío: 17°C
Humedad: 88%
Barómetro: 1021 hPa
Clouds: Cubierto
Visibility: 10 km
Cloud details: Muy nuboso 762 m
Cubierto 1372 m
2022/10/07 19:00 LEGE 071900Z 01006KT 9999 BKN025 OVC045 19/17 Q1021 RERA
 
LESU - Pirineus/La Seu, Spain
Distance from station: NNO 101km
Actualización: 07/10/2022 19:30
NOT Current
Muy nuboso
Muy nuboso
 Viento del ENE
Viento: ENE 4 km/h
Temperatura: 17°C
Rocío: 11°C
Humedad: 68%
Barómetro: 1023 hPa
Clouds: Muy nuboso
Visibility: 10 km
Cloud details: Parcialmente nuboso 1676 m
Muy nuboso 1981 m
2022/10/07 17:30 LESU 071730Z 06002KT 9999 SCT055 BKN065 17/11 Q1023
LEDA - Lleida/Alguaire, Spain
Distance from station: ONO 114km
Actualización: 07/10/2022 21:00
Despejado
Despejado
 Viento del ENE
Viento: ENE 17 km/h
Temperatura: 20°C
Rocío: 11°C
Humedad: 56%
Barómetro: 1020 hPa
Resumen: Despejado
Visibility: greater than 10 km
2022/10/07 19:00 LEDA 071900Z AUTO 06009KT CAVOK 20/11 Q1020